createdAt,value
2019-05-21T00:00:53.314Z,25.17
2019-05-21T00:03:22.050Z,26.20
2019-05-21T00:05:51.316Z,24.90
2019-05-21T00:08:19.551Z,26.30
2019-05-21T00:10:48.151Z,24.77
2019-05-21T00:13:16.376Z,25.63
2019-05-21T00:15:45.232Z,24.50
2019-05-21T00:18:13.763Z,25.70
2019-05-21T00:20:41.892Z,24.93
2019-05-21T00:23:10.426Z,24.23
2019-05-21T00:25:38.856Z,24.43
2019-05-21T00:28:37.723Z,25.40
2019-05-21T00:32:01.198Z,25.03
2019-05-21T00:35:26.414Z,24.80
2019-05-21T00:38:52.074Z,25.27
2019-05-21T00:42:02.665Z,24.67
2019-05-21T00:44:38.669Z,24.27
2019-05-21T00:47:09.605Z,25.93
2019-05-21T00:49:39.266Z,24.97
2019-05-21T00:52:09.190Z,25.87
2019-05-21T00:54:38.295Z,25.13
2019-05-21T00:57:07.030Z,27.00
2019-05-21T00:59:35.582Z,26.43
2019-05-21T01:02:03.717Z,25.03
2019-05-21T01:04:32.014Z,26.77
2019-05-21T01:07:00.743Z,26.33
2019-05-21T01:09:28.960Z,27.40
2019-05-21T01:11:58.242Z,25.77
2019-05-21T01:14:26.391Z,26.63
2019-05-21T01:16:54.704Z,26.87
2019-05-21T01:19:23.332Z,28.23
2019-05-21T01:21:52.773Z,27.87
2019-05-21T01:24:21.259Z,29.73
2019-05-21T01:26:49.685Z,28.17
2019-05-21T01:29:18.013Z,29.80
2019-05-21T01:31:46.156Z,30.17
2019-05-21T01:34:14.666Z,29.80
2019-05-21T01:36:42.984Z,28.47
2019-05-21T01:39:11.241Z,28.03
2019-05-21T01:41:39.879Z,28.93
2019-05-21T01:44:08.733Z,28.40
2019-05-21T01:46:37.089Z,29.20
2019-05-21T01:49:05.315Z,29.10
2019-05-21T01:51:33.574Z,27.00
2019-05-21T01:54:02.204Z,28.40
2019-05-21T01:56:30.469Z,29.43
2019-05-21T01:58:58.714Z,27.43
2019-05-21T02:01:26.936Z,29.60
2019-05-21T02:03:55.093Z,29.43
2019-05-21T02:06:24.622Z,29.10
2019-05-21T02:08:52.847Z,27.77
2019-05-21T02:11:22.063Z,27.90
2019-05-21T02:13:50.248Z,29.33
2019-05-21T02:16:19.257Z,27.27
2019-05-21T02:18:47.472Z,29.67
2019-05-21T02:21:16.120Z,28.50
2019-05-21T02:23:44.341Z,27.83
2019-05-21T02:26:12.494Z,28.53
2019-05-21T02:28:40.916Z,28.03
2019-05-21T02:31:09.123Z,27.57
2019-05-21T02:33:37.649Z,28.47
2019-05-21T02:36:06.198Z,28.13
2019-05-21T02:38:34.344Z,27.03
2019-05-21T02:41:03.776Z,27.30
2019-05-21T02:43:32.446Z,27.23
2019-05-21T02:46:00.652Z,27.63
2019-05-21T02:48:28.825Z,26.73
2019-05-21T02:50:57.235Z,25.77
2019-05-21T02:53:25.387Z,26.83
2019-05-21T02:55:53.946Z,26.23
2019-05-21T02:58:22.196Z,25.70
2019-05-21T03:00:59.072Z,26.93
2019-05-21T03:03:29.037Z,24.87
2019-05-21T03:06:12.203Z,27.30
2019-05-21T03:08:27.303Z,25.70
2019-05-21T03:10:55.954Z,25.67
2019-05-21T03:13:24.654Z,26.33
2019-05-21T03:15:53.167Z,26.00
2019-05-21T03:18:21.637Z,25.07
2019-05-21T03:20:50.991Z,24.83
2019-05-21T03:23:20.740Z,24.00
2019-05-21T03:25:49.184Z,25.87
2019-05-21T03:28:17.780Z,24.30
2019-05-21T03:30:45.946Z,24.07
2019-05-21T03:33:14.070Z,24.60
2019-05-21T03:35:42.684Z,25.07
2019-05-21T03:38:11.509Z,24.57
2019-05-21T03:40:40.145Z,25.67
2019-05-21T03:43:09.522Z,24.47
2019-05-21T03:45:37.829Z,25.67
2019-05-21T03:48:06.785Z,25.50
2019-05-21T03:50:34.992Z,24.03
2019-05-21T03:53:03.588Z,25.20
2019-05-21T03:55:32.104Z,24.77
2019-05-21T03:58:00.215Z,24.90
2019-05-21T04:00:28.692Z,24.87
2019-05-21T04:02:56.804Z,24.70
2019-05-21T04:05:26.546Z,23.67
2019-05-21T04:07:55.590Z,24.77
2019-05-21T04:10:24.924Z,24.37
2019-05-21T04:13:06.113Z,23.27
2019-05-21T04:16:00.375Z,24.63
2019-05-21T04:19:06.175Z,23.80
2019-05-21T04:21:52.703Z,23.33
2019-05-21T04:24:40.899Z,22.63
2019-05-21T04:27:09.618Z,22.33
2019-05-21T04:29:38.637Z,23.43
2019-05-21T04:32:25.383Z,23.33
2019-05-21T04:34:53.508Z,22.33
2019-05-21T04:37:21.671Z,23.53
2019-05-21T04:39:50.275Z,21.87
2019-05-21T04:42:19.013Z,22.07
2019-05-21T04:44:47.176Z,20.60
2019-05-21T04:47:15.291Z,21.67
2019-05-21T04:49:43.791Z,18.83
2019-05-21T04:52:12.118Z,19.13
2019-05-21T04:54:40.349Z,19.37
2019-05-21T04:57:09.012Z,19.80
2019-05-21T04:59:37.423Z,18.20
2019-05-21T05:02:05.559Z,18.23
2019-05-21T05:04:33.811Z,18.27
2019-05-21T05:07:01.961Z,15.83
2019-05-21T05:09:30.352Z,16.43
2019-05-21T05:11:58.810Z,16.10
2019-05-21T05:14:26.965Z,16.53
2019-05-21T05:16:55.564Z,17.00
2019-05-21T05:19:23.704Z,15.63
2019-05-21T05:21:53.161Z,16.43
2019-05-21T05:24:21.284Z,15.57
2019-05-21T05:26:49.407Z,15.60
2019-05-21T05:29:17.927Z,17.13
2019-05-21T05:31:46.040Z,16.50
2019-05-21T05:34:14.545Z,17.97
2019-05-21T05:36:42.708Z,19.47
2019-05-21T05:39:10.853Z,20.33
2019-05-21T05:41:39.409Z,20.93
2019-05-21T05:44:07.865Z,21.40
2019-05-21T05:46:37.695Z,21.73
2019-05-21T05:49:12.124Z,21.57
2019-05-21T05:51:40.295Z,23.00
2019-05-21T05:54:08.416Z,23.53
2019-05-21T05:56:37.961Z,24.53
2019-05-21T05:59:06.094Z,22.77
2019-05-21T06:01:34.489Z,24.13
2019-05-21T06:04:04.541Z,23.37
2019-05-21T06:06:32.883Z,24.47
2019-05-21T06:09:01.205Z,25.17
2019-05-21T06:11:29.437Z,25.40
2019-05-21T06:13:57.737Z,24.77
2019-05-21T06:16:26.156Z,26.63
2019-05-21T06:18:54.631Z,28.00
2019-05-21T06:21:22.908Z,26.27
2019-05-21T06:23:51.333Z,28.90
2019-05-21T06:26:19.556Z,28.70
2019-05-21T06:28:48.175Z,26.90
2019-05-21T06:31:16.510Z,29.70
2019-05-21T06:33:45.053Z,30.53
2019-05-21T06:36:13.621Z,32.90
2019-05-21T06:38:41.937Z,32.97
2019-05-21T06:41:10.297Z,32.13
2019-05-21T06:43:38.492Z,30.67
2019-05-21T06:46:07.636Z,29.20
2019-05-21T06:48:35.806Z,27.10
2019-05-21T06:51:04.005Z,23.17
2019-05-21T06:53:32.723Z,23.60
2019-05-21T06:56:01.052Z,23.73
2019-05-21T06:58:29.221Z,24.87
2019-05-21T07:00:57.639Z,24.47
2019-05-21T07:03:26.269Z,25.03
2019-05-21T07:05:58.951Z,24.77
2019-05-21T07:08:34.170Z,24.03
2019-05-21T07:10:56.127Z,23.23
2019-05-21T07:13:24.237Z,23.43
2019-05-21T07:15:53.487Z,24.27
2019-05-21T07:18:22.404Z,24.07
2019-05-21T07:20:51.738Z,25.83
2019-05-21T07:23:21.736Z,24.63
2019-05-21T07:25:50.471Z,25.17
2019-05-21T07:28:18.693Z,24.77
2019-05-21T07:30:47.679Z,26.67
2019-05-21T07:33:15.956Z,26.97
2019-05-21T07:35:44.677Z,26.87
2019-05-21T07:38:13.770Z,25.50
2019-05-21T07:40:42.515Z,25.50
2019-05-21T07:43:10.826Z,23.93
2019-05-21T07:45:39.898Z,25.40
2019-05-21T07:48:10.158Z,23.17
2019-05-21T07:50:38.750Z,20.90
2019-05-21T07:53:08.728Z,18.90
2019-05-21T07:55:38.856Z,22.70
2019-05-21T07:58:08.897Z,22.13
2019-05-21T08:00:38.008Z,19.30
2019-05-21T08:03:07.497Z,22.57
2019-05-21T08:05:36.050Z,21.83
2019-05-21T08:08:05.069Z,23.03
2019-05-21T08:10:35.266Z,18.90
2019-05-21T08:13:03.886Z,22.93
2019-05-21T08:15:32.378Z,27.37
2019-05-21T08:18:02.655Z,26.73
2019-05-21T08:20:31.556Z,24.97
2019-05-21T08:22:59.787Z,24.63
2019-05-21T08:25:28.605Z,16.07
2019-05-21T08:27:57.097Z,24.90
2019-05-21T08:30:25.244Z,24.03
2019-05-21T08:32:53.924Z,24.00
2019-05-21T08:35:23.345Z,24.17
2019-05-21T08:37:51.896Z,21.90
2019-05-21T08:40:21.214Z,21.77
2019-05-21T08:42:49.345Z,21.30
2019-05-21T08:45:19.664Z,21.23
2019-05-21T08:47:47.786Z,20.60
2019-05-21T08:50:16.238Z,19.37
2019-05-21T08:52:44.415Z,23.73
2019-05-21T08:55:12.676Z,21.90
2019-05-21T08:57:41.549Z,21.20
2019-05-21T09:00:13.746Z,22.27
2019-05-21T09:02:42.408Z,21.10
2019-05-21T09:05:11.591Z,22.63
2019-05-21T09:07:41.506Z,22.03
2019-05-21T09:10:28.680Z,20.93
2019-05-21T09:12:58.671Z,19.13
2019-05-21T09:15:27.137Z,19.47
2019-05-21T09:17:55.858Z,22.20
2019-05-21T09:20:24.447Z,22.00
2019-05-21T09:22:53.170Z,16.77
2019-05-21T09:25:21.306Z,21.00
2019-05-21T09:27:50.262Z,21.77
2019-05-21T09:30:20.226Z,21.63
2019-05-21T09:32:49.095Z,23.23
2019-05-21T09:35:17.565Z,20.60
2019-05-21T09:37:47.485Z,22.27
2019-05-21T09:40:18.957Z,22.07
2019-05-21T09:42:47.327Z,20.37
2019-05-21T09:45:16.301Z,17.67
2019-05-21T09:47:44.799Z,18.47
2019-05-21T09:50:31.435Z,18.80
2019-05-21T09:53:00.125Z,15.77
2019-05-21T09:55:28.798Z,15.20
2019-05-21T09:58:16.669Z,17.60
2019-05-21T10:01:16.561Z,17.47
2019-05-21T10:03:54.604Z,18.20
2019-05-21T10:06:22.991Z,18.17
2019-05-21T10:08:52.428Z,18.00
2019-05-21T10:11:21.134Z,14.03
2019-05-21T10:13:50.467Z,15.70
2019-05-21T10:16:19.287Z,18.37
2019-05-21T10:18:48.650Z,15.40
2019-05-21T10:21:16.907Z,15.90
2019-05-21T10:23:45.347Z,18.27
2019-05-21T10:26:13.949Z,16.07
2019-05-21T10:28:43.558Z,16.93
2019-05-21T10:31:11.805Z,15.93
2019-05-21T10:33:40.483Z,15.20
2019-05-21T10:36:09.078Z,14.57
2019-05-21T10:38:37.377Z,14.93
2019-05-21T10:41:05.611Z,13.53
2019-05-21T10:43:33.844Z,14.70
2019-05-21T10:46:02.071Z,14.53
2019-05-21T10:48:31.555Z,14.47
2019-05-21T10:51:00.315Z,16.07
2019-05-21T10:53:28.482Z,16.87
2019-05-21T10:55:57.315Z,14.97
2019-05-21T10:58:25.935Z,16.00
2019-05-21T11:00:59.057Z,16.47
2019-05-21T11:03:46.780Z,17.33
2019-05-21T11:06:15.955Z,16.57
2019-05-21T11:08:44.087Z,17.63
2019-05-21T11:11:12.360Z,17.53
2019-05-21T11:13:40.579Z,16.50
2019-05-21T11:16:08.808Z,16.77
2019-05-21T11:18:37.288Z,17.17
2019-05-21T11:21:05.612Z,17.53
2019-05-21T11:23:34.041Z,17.23
2019-05-21T11:26:02.261Z,15.50
2019-05-21T11:28:30.512Z,16.80
2019-05-21T11:30:58.778Z,16.90
2019-05-21T11:33:27.501Z,15.60
2019-05-21T11:35:56.140Z,14.20
2019-05-21T11:38:39.067Z,14.77
2019-05-21T11:40:54.662Z,14.70
2019-05-21T11:43:23.506Z,13.70
2019-05-21T11:45:52.009Z,13.97
2019-05-21T11:48:20.283Z,15.20
2019-05-21T11:50:48.607Z,14.13
2019-05-21T11:53:16.929Z,12.10
2019-05-21T11:55:46.050Z,9.53
2019-05-21T11:58:14.473Z,9.93
2019-05-21T12:00:42.832Z,10.80
2019-05-21T12:03:11.350Z,7.90
2019-05-21T12:05:39.964Z,12.63
2019-05-21T12:08:08.392Z,11.43
2019-05-21T12:10:36.585Z,12.40
2019-05-21T12:13:05.118Z,12.93
2019-05-21T12:15:33.301Z,11.73
2019-05-21T12:18:01.620Z,11.60
2019-05-21T12:20:36.926Z,10.53
2019-05-21T12:23:00.897Z,12.40
2019-05-21T12:25:29.348Z,13.30
2019-05-21T12:27:58.031Z,12.83
2019-05-21T12:30:26.275Z,10.00
2019-05-21T12:32:54.947Z,13.17
2019-05-21T12:35:23.428Z,15.80
2019-05-21T12:37:51.678Z,13.47
2019-05-21T12:40:21.249Z,14.60
2019-05-21T12:42:49.775Z,14.47
2019-05-21T12:45:18.363Z,15.00
2019-05-21T12:47:49.927Z,15.43
2019-05-21T12:50:17.098Z,14.87
2019-05-21T12:52:46.409Z,15.97
2019-05-21T12:55:14.994Z,15.43
2019-05-21T12:57:43.317Z,16.60
2019-05-21T13:00:13.109Z,15.17
2019-05-21T13:02:41.413Z,15.67
2019-05-21T13:05:11.742Z,14.67
2019-05-21T13:07:40.317Z,15.03
2019-05-21T13:10:09.870Z,14.60
2019-05-21T13:12:38.128Z,15.43
2019-05-21T13:15:07.628Z,13.53
2019-05-21T13:17:35.750Z,14.40
2019-05-21T13:20:06.849Z,13.50
2019-05-21T13:22:36.861Z,14.10
2019-05-21T13:25:06.537Z,15.40
2019-05-21T13:27:34.875Z,14.23
2019-05-21T13:30:03.979Z,14.13
2019-05-21T13:32:32.370Z,15.37
2019-05-21T13:35:01.060Z,15.13
2019-05-21T13:37:29.791Z,13.97
2019-05-21T13:39:58.319Z,15.63
2019-05-21T13:42:26.705Z,15.17
2019-05-21T13:44:57.050Z,16.19
2019-05-21T13:47:25.319Z,16.13
2019-05-21T13:49:53.620Z,16.43
2019-05-21T13:52:22.537Z,17.17
2019-05-21T13:54:50.751Z,16.57
2019-05-21T13:57:19.767Z,16.33
2019-05-21T13:59:47.975Z,18.20
2019-05-21T14:02:17.125Z,17.13
2019-05-21T14:04:45.265Z,15.87
2019-05-21T14:07:13.600Z,16.27
2019-05-21T14:09:41.880Z,16.93
2019-05-21T14:12:10.667Z,17.00
2019-05-21T14:14:39.244Z,16.73
2019-05-21T14:17:07.790Z,16.80
2019-05-21T14:19:36.013Z,17.83
2019-05-21T14:22:04.598Z,16.80
2019-05-21T14:24:32.765Z,18.47
2019-05-21T14:27:00.997Z,16.97
2019-05-21T14:29:29.517Z,18.33
2019-05-21T14:31:57.787Z,18.20
2019-05-21T14:34:26.122Z,18.20
2019-05-21T14:36:54.342Z,14.97
2019-05-21T14:39:22.908Z,13.00
2019-05-21T14:41:51.240Z,17.37
2019-05-21T14:44:19.765Z,17.53
2019-05-21T14:46:48.105Z,17.10
2019-05-21T14:49:16.471Z,18.13
2019-05-21T14:51:45.361Z,17.77
2019-05-21T14:54:26.192Z,19.27
2019-05-21T14:56:47.067Z,19.97
2019-05-21T14:59:14.504Z,18.60
2019-05-21T15:01:43.181Z,18.47
2019-05-21T15:04:11.463Z,18.60
2019-05-21T15:06:39.673Z,19.20
2019-05-21T15:09:08.041Z,20.23
2019-05-21T15:11:36.360Z,21.07
2019-05-21T15:14:04.684Z,21.23
2019-05-21T15:16:32.812Z,21.13
2019-05-21T15:19:01.477Z,22.07
2019-05-21T15:21:35.247Z,21.97
2019-05-21T15:24:04.149Z,22.13
2019-05-21T15:26:33.172Z,21.60
2019-05-21T15:29:02.038Z,22.07
2019-05-21T15:31:30.489Z,21.67
2019-05-21T15:33:58.643Z,21.17
2019-05-21T15:36:27.527Z,20.27
2019-05-21T15:38:55.825Z,21.20
2019-05-21T15:41:24.328Z,20.87
2019-05-21T15:43:53.037Z,20.33
2019-05-21T15:46:21.137Z,19.63
2019-05-21T15:48:49.639Z,20.37
2019-05-21T15:51:17.852Z,21.13
2019-05-21T15:53:46.447Z,21.40
2019-05-21T15:56:14.704Z,19.70
2019-05-21T15:58:43.036Z,20.83
2019-05-21T16:01:11.197Z,20.30
2019-05-21T16:03:39.395Z,19.70
2019-05-21T16:06:08.002Z,18.53
2019-05-21T16:08:36.388Z,19.47
2019-05-21T16:11:04.846Z,20.43
2019-05-21T16:13:32.959Z,18.60
2019-05-21T16:16:01.195Z,18.40
2019-05-21T16:18:29.531Z,17.90
2019-05-21T16:20:57.812Z,19.20
2019-05-21T16:23:26.324Z,18.07
2019-05-21T16:25:54.697Z,17.50
2019-05-21T16:28:22.941Z,16.70
2019-05-21T16:30:51.713Z,17.67
2019-05-21T16:33:20.150Z,18.27
2019-05-21T16:35:48.382Z,18.73
2019-05-21T16:38:16.780Z,16.53
2019-05-21T16:40:45.497Z,18.57
2019-05-21T16:43:13.624Z,17.80
2019-05-21T16:45:41.889Z,17.80
2019-05-21T16:48:10.608Z,18.97
2019-05-21T16:50:39.116Z,18.33
2019-05-21T16:53:07.605Z,16.97
2019-05-21T16:55:37.727Z,18.77
2019-05-21T16:58:07.295Z,17.90
2019-05-21T17:00:35.802Z,17.73
2019-05-21T17:03:06.332Z,19.43
2019-05-21T17:05:35.098Z,18.60
2019-05-21T17:08:04.129Z,19.93
2019-05-21T17:10:33.365Z,17.53
2019-05-21T17:13:01.921Z,19.57
2019-05-21T17:15:30.134Z,19.73
2019-05-21T17:18:00.458Z,19.90
2019-05-21T17:20:28.694Z,19.70
2019-05-21T17:22:56.821Z,19.70
2019-05-21T17:25:26.798Z,19.37
2019-05-21T17:27:55.151Z,20.33
2019-05-21T17:30:23.472Z,20.43
2019-05-21T17:32:52.281Z,19.33
2019-05-21T17:35:21.752Z,20.00
2019-05-21T17:37:49.937Z,19.77
2019-05-21T17:40:20.193Z,19.80
2019-05-21T17:42:50.151Z,19.83
2019-05-21T17:45:18.255Z,20.30
2019-05-21T17:47:48.544Z,19.10
2019-05-21T17:50:18.060Z,19.33
2019-05-21T17:52:46.428Z,18.77
2019-05-21T17:55:15.073Z,19.50
2019-05-21T17:57:44.530Z,19.73
2019-05-21T18:00:16.701Z,20.17
2019-05-21T18:02:47.803Z,17.37
2019-05-21T18:05:18.863Z,20.43
2019-05-21T18:07:47.324Z,20.70
2019-05-21T18:10:16.764Z,20.40
2019-05-21T18:12:44.965Z,20.23
2019-05-21T18:15:14.900Z,20.23
2019-05-21T18:17:45.539Z,19.77
2019-05-21T18:20:17.402Z,19.60
2019-05-21T18:22:50.085Z,18.87
2019-05-21T18:25:18.247Z,19.03
2019-05-21T18:27:47.537Z,17.63
2019-05-21T18:30:17.901Z,14.40
2019-05-21T18:32:47.062Z,18.87
2019-05-21T18:35:17.021Z,19.33
2019-05-21T18:37:45.277Z,18.50
2019-05-21T18:40:14.000Z,16.87
2019-05-21T18:42:42.520Z,18.03
2019-05-21T18:45:12.545Z,17.27
2019-05-21T18:47:40.686Z,18.60
2019-05-21T18:50:09.878Z,18.67
2019-05-21T18:52:38.161Z,18.17
2019-05-21T18:55:07.145Z,19.27
2019-05-21T18:57:35.779Z,18.00
2019-05-21T19:00:04.735Z,18.40
2019-05-21T19:02:33.890Z,18.03
2019-05-21T19:05:02.629Z,17.67
2019-05-21T19:07:30.850Z,18.00
2019-05-21T19:10:00.979Z,17.00
2019-05-21T19:12:37.946Z,18.07
2019-05-21T19:15:03.476Z,18.17
2019-05-21T19:17:35.779Z,18.00
2019-05-21T19:20:06.820Z,17.57
2019-05-21T19:22:36.818Z,17.33
2019-05-21T19:25:07.764Z,15.80
2019-05-21T19:27:37.884Z,15.60
2019-05-21T19:30:10.634Z,16.57
2019-05-21T19:32:40.717Z,16.90
2019-05-21T19:35:11.971Z,14.63
2019-05-21T19:37:41.924Z,15.90
2019-05-21T19:40:11.200Z,15.10
2019-05-21T19:42:53.823Z,16.50
2019-05-21T19:45:11.545Z,17.27
2019-05-21T19:47:40.913Z,17.23
2019-05-21T19:50:09.584Z,16.50
2019-05-21T19:52:39.824Z,16.00
2019-05-21T19:55:08.485Z,17.07
2019-05-21T19:57:39.791Z,16.80
2019-05-21T20:00:10.965Z,18.37
2019-05-21T20:02:39.926Z,16.30
2019-05-21T20:05:10.590Z,17.83
2019-05-21T20:07:40.645Z,18.33
2019-05-21T20:10:09.761Z,18.17
2019-05-21T20:12:40.348Z,17.90
2019-05-21T20:15:10.482Z,17.93
2019-05-21T20:17:40.392Z,17.77
2019-05-21T20:20:12.451Z,16.53
2019-05-21T20:22:44.688Z,18.13
2019-05-21T20:25:15.267Z,15.70
2019-05-21T20:27:43.777Z,19.40
2019-05-21T20:30:18.391Z,19.90
2019-05-21T20:32:48.724Z,19.97
2019-05-21T20:35:21.331Z,19.00
2019-05-21T20:37:50.604Z,20.50
2019-05-21T20:40:20.108Z,18.63
2019-05-21T20:42:50.559Z,20.50
2019-05-21T20:45:19.568Z,20.93
2019-05-21T20:47:50.969Z,21.77
2019-05-21T20:50:21.673Z,22.97
2019-05-21T20:52:52.416Z,23.40
2019-05-21T20:55:21.540Z,22.60
2019-05-21T20:57:49.696Z,23.93
2019-05-21T21:00:23.195Z,23.27
2019-05-21T21:02:52.263Z,23.03
2019-05-21T21:05:21.173Z,23.33
2019-05-21T21:07:51.320Z,26.03
2019-05-21T21:10:20.554Z,26.00
2019-05-21T21:12:49.463Z,26.27
2019-05-21T21:15:18.507Z,25.17
2019-05-21T21:17:46.661Z,24.63
2019-05-21T21:20:15.597Z,24.77
2019-05-21T21:22:44.044Z,24.70
2019-05-21T21:25:19.481Z,22.03
2019-05-21T21:27:47.618Z,22.80
2019-05-21T21:30:18.576Z,22.63
2019-05-21T21:32:47.024Z,22.57
2019-05-21T21:35:15.654Z,21.97
2019-05-21T21:37:45.923Z,22.63
2019-05-21T21:40:17.110Z,23.40
2019-05-21T21:42:45.654Z,22.07
2019-05-21T21:45:13.918Z,25.97
2019-05-21T21:47:42.958Z,24.00
2019-05-21T21:50:11.845Z,23.10
2019-05-21T21:52:42.748Z,24.60
2019-05-21T21:55:12.740Z,22.60
2019-05-21T21:57:40.926Z,23.87
2019-05-21T22:01:09.705Z,22.83
2019-05-21T22:03:39.801Z,20.80
2019-05-21T22:06:09.575Z,19.83
2019-05-21T22:08:39.041Z,22.47
2019-05-21T22:11:07.431Z,21.27
2019-05-21T22:13:36.701Z,19.50
2019-05-21T22:16:06.303Z,20.27
2019-05-21T22:18:34.478Z,18.07
2019-05-21T22:21:02.971Z,20.70
2019-05-21T22:23:31.542Z,21.80
2019-05-21T22:26:00.222Z,19.73
2019-05-21T22:28:28.752Z,21.30
2019-05-21T22:30:57.160Z,20.33
2019-05-21T22:33:25.299Z,20.43
2019-05-21T22:35:53.437Z,20.07
2019-05-21T22:38:21.917Z,21.43
2019-05-21T22:40:50.625Z,17.97
2019-05-21T22:43:19.268Z,17.73
2019-05-21T22:45:47.999Z,16.77
2019-05-21T22:48:16.301Z,18.77
2019-05-21T22:50:44.539Z,20.13
2019-05-21T22:53:12.672Z,20.17
2019-05-21T22:55:40.915Z,18.17
2019-05-21T22:58:09.090Z,13.53
2019-05-21T23:00:38.466Z,18.83
2019-05-21T23:03:07.209Z,18.17
2019-05-21T23:05:36.195Z,15.63
2019-05-21T23:08:05.097Z,18.07
2019-05-21T23:10:33.235Z,15.73
2019-05-21T23:13:01.549Z,19.77
2019-05-21T23:15:30.401Z,16.13
2019-05-21T23:17:58.556Z,17.93
2019-05-21T23:20:29.689Z,17.70
2019-05-21T23:22:58.740Z,17.30
2019-05-21T23:25:29.787Z,16.83
2019-05-21T23:27:59.068Z,16.23
2019-05-21T23:30:27.444Z,17.60
2019-05-21T23:32:56.323Z,16.77
2019-05-21T23:35:25.613Z,15.30
2019-05-21T23:37:55.913Z,16.53
2019-05-21T23:40:24.634Z,15.87
2019-05-21T23:42:54.749Z,15.63
2019-05-21T23:45:23.797Z,14.27
2019-05-21T23:47:52.225Z,12.83
2019-05-21T23:50:20.979Z,14.97
2019-05-21T23:52:49.927Z,14.20
2019-05-21T23:55:18.400Z,13.63
2019-05-21T23:57:47.771Z,14.53
